createdAt,value
2022-12-29T00:01:35.533Z,4.63
2022-12-29T00:04:02.310Z,4.15
2022-12-29T00:06:29.225Z,4.28
2022-12-29T00:08:55.754Z,4.75
2022-12-29T00:11:27.197Z,4.15
2022-12-29T00:14:13.368Z,5.20
2022-12-29T00:16:44.067Z,4.22
2022-12-29T00:19:31.963Z,4.60
2022-12-29T00:22:17.873Z,4.20
2022-12-29T00:24:54.549Z,3.80
2022-12-29T00:27:39.582Z,3.92
2022-12-29T00:30:30.261Z,4.43
2022-12-29T00:33:15.716Z,4.60
2022-12-29T00:35:47.760Z,4.43
2022-12-29T00:38:33.784Z,4.40
2022-12-29T00:41:18.761Z,4.53
2022-12-29T00:44:03.463Z,3.67
2022-12-29T00:46:30.068Z,3.17
2022-12-29T00:49:15.226Z,4.47
2022-12-29T00:51:41.804Z,3.15
2022-12-29T00:54:08.485Z,3.25
2022-12-29T00:56:35.027Z,2.63
2022-12-29T00:59:03.320Z,3.55
2022-12-29T01:01:30.323Z,3.38
2022-12-29T01:04:01.980Z,2.00
2022-12-29T01:06:30.652Z,3.70
2022-12-29T01:09:15.582Z,4.07
2022-12-29T01:11:42.893Z,2.95
2022-12-29T01:14:09.504Z,3.70
2022-12-29T01:16:37.454Z,4.07
2022-12-29T01:19:04.686Z,4.53
2022-12-29T01:21:31.425Z,3.67
2022-12-29T01:23:57.935Z,3.28
2022-12-29T01:26:24.461Z,3.80
2022-12-29T01:28:51.092Z,5.13
2022-12-29T01:31:18.097Z,3.15
2022-12-29T01:33:44.835Z,2.70
2022-12-29T01:36:17.165Z,3.17
2022-12-29T01:38:44.166Z,2.22
2022-12-29T01:41:13.222Z,3.10
2022-12-29T01:43:50.098Z,3.70
2022-12-29T01:46:29.053Z,3.10
2022-12-29T01:49:14.787Z,3.60
2022-12-29T01:51:49.454Z,3.55
2022-12-29T01:54:25.531Z,3.00
2022-12-29T01:56:54.775Z,2.65
2022-12-29T01:59:25.812Z,2.20
2022-12-29T02:01:52.500Z,3.78
2022-12-29T02:04:19.365Z,4.40
2022-12-29T02:07:00.909Z,4.60
2022-12-29T02:09:27.484Z,3.38
2022-12-29T02:11:54.862Z,3.10
2022-12-29T02:14:21.485Z,3.67
2022-12-29T02:17:14.618Z,3.92
2022-12-29T02:20:05.856Z,4.05
2022-12-29T02:22:57.484Z,3.40
2022-12-29T02:25:42.383Z,4.22
2022-12-29T02:29:04.498Z,5.03
2022-12-29T02:31:57.431Z,4.72
2022-12-29T02:34:42.139Z,5.40
2022-12-29T02:37:19.567Z,4.68
2022-12-29T02:39:57.698Z,4.68
2022-12-29T02:42:49.683Z,5.15
2022-12-29T02:45:23.079Z,4.40
2022-12-29T02:47:57.578Z,3.70
2022-12-29T02:50:31.535Z,4.90
2022-12-29T02:53:10.971Z,3.22
2022-12-29T02:55:37.566Z,4.32
2022-12-29T02:58:09.931Z,4.35
2022-12-29T03:00:46.511Z,4.32
2022-12-29T03:03:40.472Z,4.95
2022-12-29T03:06:22.955Z,4.03
2022-12-29T03:08:53.950Z,4.05
2022-12-29T03:11:39.341Z,4.72
2022-12-29T03:14:37.121Z,4.35
2022-12-29T03:17:11.471Z,5.25
2022-12-29T03:19:46.817Z,5.43
2022-12-29T03:22:31.640Z,5.45
2022-12-29T03:25:05.983Z,3.00
2022-12-29T03:27:39.430Z,5.38
2022-12-29T03:30:09.889Z,5.80
2022-12-29T03:32:44.032Z,5.53
2022-12-29T03:35:14.203Z,4.65
2022-12-29T03:37:47.131Z,4.10
2022-12-29T03:40:13.705Z,4.93
2022-12-29T03:42:42.053Z,5.43
2022-12-29T03:45:10.155Z,6.10
2022-12-29T03:47:36.924Z,6.10
2022-12-29T03:50:03.656Z,5.05
2022-12-29T03:52:30.176Z,3.58
2022-12-29T03:54:56.700Z,3.90
2022-12-29T03:57:23.266Z,3.20
2022-12-29T03:59:49.970Z,3.25
2022-12-29T04:02:16.787Z,3.40
2022-12-29T04:04:45.075Z,5.00
2022-12-29T04:07:11.619Z,4.93
2022-12-29T04:09:38.182Z,6.07
2022-12-29T04:12:04.980Z,5.38
2022-12-29T04:14:31.574Z,6.15
2022-12-29T04:16:58.162Z,6.35
2022-12-29T04:19:24.760Z,6.35
2022-12-29T04:21:51.298Z,5.35
2022-12-29T04:24:18.816Z,5.38
2022-12-29T04:26:45.528Z,4.50
2022-12-29T04:29:12.144Z,6.15
2022-12-29T04:31:38.740Z,6.70
2022-12-29T04:34:05.326Z,7.05
2022-12-29T04:36:31.851Z,6.63
2022-12-29T04:38:58.485Z,6.78
2022-12-29T04:41:25.326Z,5.65
2022-12-29T04:43:52.026Z,5.13
2022-12-29T04:46:18.676Z,6.03
2022-12-29T04:48:45.390Z,5.38
2022-12-29T04:51:11.907Z,3.75
2022-12-29T04:53:38.476Z,6.35
2022-12-29T04:56:05.265Z,7.05
2022-12-29T04:58:31.872Z,8.00
2022-12-29T05:00:58.444Z,4.95
2022-12-29T05:03:25.075Z,5.78
2022-12-29T05:05:55.096Z,5.68
2022-12-29T05:08:27.588Z,7.78
2022-12-29T05:10:54.754Z,6.18
2022-12-29T05:13:21.334Z,4.57
2022-12-29T05:15:55.065Z,5.05
2022-12-29T05:20:48.365Z,3.88
2022-12-29T05:23:15.508Z,3.00
2022-12-29T05:25:42.294Z,4.25
2022-12-29T05:28:08.832Z,6.80
2022-12-29T05:30:35.386Z,3.75
2022-12-29T05:33:01.931Z,6.22
2022-12-29T05:35:28.565Z,7.93
2022-12-29T05:37:55.061Z,8.02
2022-12-29T05:40:21.647Z,7.35
2022-12-29T05:42:48.157Z,6.60
2022-12-29T05:45:14.708Z,7.53
2022-12-29T05:47:41.245Z,5.82
2022-12-29T05:50:08.239Z,5.05
2022-12-29T05:52:34.838Z,5.25
2022-12-29T05:55:01.454Z,6.57
2022-12-29T05:57:28.032Z,5.95
2022-12-29T05:59:54.627Z,7.15
2022-12-29T06:02:21.292Z,4.65
2022-12-29T06:04:47.932Z,7.28
2022-12-29T06:07:14.461Z,4.07
2022-12-29T06:09:40.984Z,4.60
2022-12-29T06:12:07.786Z,7.00
2022-12-29T06:14:34.308Z,6.15
2022-12-29T06:17:01.027Z,5.53
2022-12-29T06:19:27.566Z,6.50
2022-12-29T06:21:54.696Z,6.10
2022-12-29T06:24:21.671Z,7.18
2022-12-29T06:26:48.179Z,5.40
2022-12-29T06:29:18.100Z,6.45
2022-12-29T06:31:46.704Z,5.68
2022-12-29T06:34:14.104Z,4.32
2022-12-29T06:36:40.701Z,6.03
2022-12-29T06:39:07.271Z,4.28
2022-12-29T06:41:33.897Z,5.65
2022-12-29T06:44:00.424Z,5.57
2022-12-29T06:46:26.969Z,5.65
2022-12-29T06:48:53.563Z,5.60
2022-12-29T06:51:20.065Z,6.82
2022-12-29T06:53:46.630Z,4.35
2022-12-29T06:56:13.151Z,5.13
2022-12-29T06:58:39.750Z,8.00
2022-12-29T07:01:06.404Z,5.15
2022-12-29T07:03:33.038Z,4.22
2022-12-29T07:05:59.678Z,6.03
2022-12-29T07:08:26.264Z,5.07
2022-12-29T07:10:53.023Z,4.50
2022-12-29T07:13:19.600Z,6.28
2022-12-29T07:15:46.117Z,5.57
2022-12-29T07:18:12.674Z,4.57
2022-12-29T07:20:39.208Z,7.47
2022-12-29T07:23:05.751Z,5.35
2022-12-29T07:25:32.487Z,6.95
2022-12-29T07:27:59.065Z,5.32
2022-12-29T07:30:25.648Z,6.70
2022-12-29T07:32:52.198Z,4.45
2022-12-29T07:35:18.697Z,5.55
2022-12-29T07:37:45.289Z,4.90
2022-12-29T07:40:12.486Z,5.82
2022-12-29T07:42:39.069Z,7.63
2022-12-29T07:45:06.261Z,5.43
2022-12-29T07:47:33.041Z,5.35
2022-12-29T07:49:59.628Z,5.65
2022-12-29T07:52:26.145Z,7.95
2022-12-29T07:54:52.843Z,5.38
2022-12-29T07:57:19.374Z,6.47
2022-12-29T07:59:45.949Z,6.28
2022-12-29T08:02:12.909Z,7.45
2022-12-29T08:04:39.816Z,6.78
2022-12-29T08:07:06.415Z,6.72
2022-12-29T08:09:33.038Z,5.80
2022-12-29T08:11:59.832Z,5.85
2022-12-29T08:14:26.563Z,4.50
2022-12-29T08:16:53.121Z,4.50
2022-12-29T08:19:19.750Z,7.30
2022-12-29T08:21:46.334Z,4.50
2022-12-29T08:24:12.876Z,4.82
2022-12-29T08:26:39.420Z,9.25
2022-12-29T08:29:05.998Z,7.63
2022-12-29T08:31:32.655Z,8.45
2022-12-29T08:34:01.018Z,7.88
2022-12-29T08:36:27.610Z,5.30
2022-12-29T08:38:54.311Z,7.60
2022-12-29T08:41:20.873Z,6.78
2022-12-29T08:43:48.679Z,7.45
2022-12-29T08:46:16.121Z,6.53
2022-12-29T08:48:42.973Z,7.80
2022-12-29T08:51:09.907Z,7.57
2022-12-29T08:53:36.569Z,5.75
2022-12-29T08:56:05.403Z,7.93
2022-12-29T08:58:33.104Z,8.15
2022-12-29T09:01:00.489Z,10.07
2022-12-29T09:06:16.954Z,8.75
2022-12-29T09:08:44.331Z,7.40
2022-12-29T09:11:13.499Z,7.32
2022-12-29T09:13:40.139Z,8.13
2022-12-29T09:16:07.307Z,6.90
2022-12-29T09:18:34.176Z,6.88
2022-12-29T09:21:04.658Z,7.85
2022-12-29T09:23:32.038Z,9.68
2022-12-29T09:25:58.750Z,7.35
2022-12-29T09:28:26.115Z,7.55
2022-12-29T09:30:53.345Z,7.03
2022-12-29T09:33:19.947Z,10.00
2022-12-29T09:35:52.300Z,9.90
2022-12-29T09:38:19.202Z,4.85
2022-12-29T09:40:51.132Z,6.97
2022-12-29T09:43:20.376Z,7.25
2022-12-29T09:45:51.388Z,5.63
2022-12-29T09:48:24.407Z,8.98
2022-12-29T09:50:58.311Z,7.60
2022-12-29T09:53:34.688Z,10.50
2022-12-29T09:56:02.971Z,7.03
2022-12-29T09:59:00.589Z,7.07
2022-12-29T10:01:57.799Z,7.30
2022-12-29T10:04:27.997Z,6.13
2022-12-29T10:10:04.913Z,5.18
2022-12-29T10:13:02.238Z,6.60
2022-12-29T10:15:34.556Z,6.55
2022-12-29T10:18:29.672Z,6.57
2022-12-29T10:21:06.891Z,5.55
2022-12-29T10:23:37.117Z,4.55
2022-12-29T10:26:05.396Z,6.30
2022-12-29T10:29:04.294Z,7.80
2022-12-29T10:31:40.335Z,8.70
2022-12-29T10:34:24.509Z,6.80
2022-12-29T10:39:27.756Z,6.28
2022-12-29T10:41:59.385Z,8.38
2022-12-29T10:44:31.959Z,8.38
2022-12-29T10:47:07.083Z,4.88
2022-12-29T10:49:40.513Z,6.90
2022-12-29T10:52:08.183Z,6.18
2022-12-29T10:54:50.561Z,7.40
2022-12-29T10:57:38.009Z,8.45
2022-12-29T11:00:30.698Z,6.88
2022-12-29T11:03:36.752Z,5.53
2022-12-29T11:06:16.857Z,8.80
2022-12-29T11:08:53.912Z,7.60
2022-12-29T11:11:35.938Z,8.40
2022-12-29T11:14:20.403Z,6.85
2022-12-29T11:16:58.563Z,5.80
2022-12-29T11:19:28.492Z,8.93
2022-12-29T11:21:55.752Z,9.20
2022-12-29T11:24:25.682Z,6.03
2022-12-29T11:27:09.535Z,10.68
2022-12-29T11:29:42.250Z,13.65
2022-12-29T11:32:13.820Z,13.55
2022-12-29T11:34:40.468Z,9.65
2022-12-29T11:37:13.036Z,12.85
2022-12-29T11:40:05.344Z,8.75
2022-12-29T11:42:42.017Z,12.18
2022-12-29T11:45:21.093Z,12.75
2022-12-29T11:47:58.816Z,9.70
2022-12-29T11:50:29.016Z,7.20
2022-12-29T11:53:06.639Z,10.35
2022-12-29T11:55:33.781Z,11.07
2022-12-29T11:58:03.581Z,6.35
2022-12-29T12:00:34.663Z,8.32
2022-12-29T12:03:23.716Z,8.82
2022-12-29T12:05:56.766Z,11.00
2022-12-29T12:08:23.253Z,5.47
2022-12-29T12:11:05.369Z,10.43
2022-12-29T12:13:56.662Z,10.30
2022-12-29T12:16:28.775Z,8.20
2022-12-29T12:19:02.137Z,6.32
2022-12-29T12:21:51.313Z,8.40
2022-12-29T12:24:29.889Z,6.03
2022-12-29T12:27:02.171Z,9.85
2022-12-29T12:29:53.575Z,8.52
2022-12-29T12:32:57.600Z,12.77
2022-12-29T12:35:29.748Z,6.97
2022-12-29T12:38:15.093Z,7.20
2022-12-29T12:40:50.683Z,8.63
2022-12-29T12:43:45.309Z,7.05
2022-12-29T12:46:44.114Z,10.60
2022-12-29T12:49:29.590Z,11.85
2022-12-29T12:52:31.686Z,8.00
2022-12-29T12:55:19.615Z,8.02
2022-12-29T12:58:02.259Z,11.15
2022-12-29T13:00:31.466Z,10.60
2022-12-29T13:03:16.925Z,11.73
2022-12-29T13:06:13.985Z,10.77
2022-12-29T13:09:05.523Z,9.30
2022-12-29T13:12:04.560Z,9.55
2022-12-29T13:15:09.661Z,7.78
2022-12-29T13:17:51.476Z,10.57
2022-12-29T13:20:34.836Z,5.38
2022-12-29T13:23:14.195Z,8.80
2022-12-29T13:26:12.356Z,10.48
2022-12-29T13:28:54.146Z,7.93
2022-12-29T13:32:09.216Z,7.32
2022-12-29T13:37:18.803Z,8.90
2022-12-29T13:40:17.051Z,9.38
2022-12-29T13:42:44.468Z,7.10
2022-12-29T13:45:23.812Z,8.98
2022-12-29T13:47:58.929Z,8.57
2022-12-29T13:50:28.976Z,11.57
2022-12-29T13:53:19.967Z,7.82
2022-12-29T13:56:21.708Z,12.80
2022-12-29T13:58:56.760Z,7.03
2022-12-29T14:01:35.436Z,8.23
2022-12-29T14:04:10.426Z,9.38
2022-12-29T14:06:41.586Z,6.63
2022-12-29T14:09:43.779Z,6.95
2022-12-29T14:12:31.415Z,7.60
2022-12-29T14:15:10.248Z,11.60
2022-12-29T14:17:38.180Z,9.02
2022-12-29T14:20:17.097Z,12.00
2022-12-29T14:23:26.530Z,11.05
2022-12-29T14:26:00.902Z,5.80
2022-12-29T14:28:32.527Z,7.90
2022-12-29T14:31:01.185Z,8.55
2022-12-29T14:33:31.136Z,8.38
2022-12-29T14:36:18.268Z,15.85
2022-12-29T14:38:48.762Z,14.55
2022-12-29T14:41:38.914Z,15.75
2022-12-29T14:44:08.416Z,12.35
2022-12-29T14:46:56.369Z,8.32
2022-12-29T14:49:26.635Z,6.15
2022-12-29T14:51:56.005Z,8.95
2022-12-29T14:54:34.334Z,8.98
2022-12-29T14:57:07.346Z,11.15
2022-12-29T14:59:35.725Z,10.23
2022-12-29T15:02:16.397Z,7.45
2022-12-29T15:04:45.032Z,9.90
2022-12-29T15:07:11.976Z,12.13
2022-12-29T15:09:51.804Z,10.07
2022-12-29T15:12:23.592Z,6.80
2022-12-29T15:14:56.785Z,10.30
2022-12-29T15:17:31.622Z,10.55
2022-12-29T15:20:01.734Z,10.90
2022-12-29T15:22:28.933Z,8.48
2022-12-29T15:24:57.167Z,9.85
2022-12-29T15:27:26.732Z,7.97
2022-12-29T15:30:02.897Z,6.07
2022-12-29T15:32:40.319Z,6.80
2022-12-29T15:35:35.449Z,10.20
2022-12-29T15:38:15.059Z,10.95
2022-12-29T15:40:44.939Z,11.07
2022-12-29T15:43:23.163Z,9.88
2022-12-29T15:45:51.228Z,10.68
2022-12-29T15:48:21.076Z,7.85
2022-12-29T15:50:48.253Z,8.60
2022-12-29T15:53:29.378Z,8.75
2022-12-29T15:56:09.805Z,7.47
2022-12-29T15:58:49.637Z,9.25
2022-12-29T16:01:28.396Z,7.47
2022-12-29T16:03:55.989Z,8.48
2022-12-29T16:06:31.616Z,7.93
2022-12-29T16:09:01.188Z,5.22
2022-12-29T16:11:34.554Z,7.18
2022-12-29T16:14:02.262Z,7.13
2022-12-29T16:16:39.361Z,10.13
2022-12-29T16:19:14.656Z,10.25
2022-12-29T16:21:42.562Z,8.65
2022-12-29T16:24:21.808Z,7.63
2022-12-29T16:26:50.877Z,7.75
2022-12-29T16:29:20.591Z,5.72
2022-12-29T16:31:52.205Z,6.75
2022-12-29T16:34:26.820Z,6.72
2022-12-29T16:36:59.477Z,6.60
2022-12-29T16:39:32.538Z,12.50
2022-12-29T16:41:59.357Z,7.97
2022-12-29T16:44:31.183Z,5.82
2022-12-29T16:47:03.820Z,6.93
2022-12-29T16:49:32.696Z,8.20
2022-12-29T16:51:59.642Z,9.10
2022-12-29T16:54:34.710Z,9.60
2022-12-29T16:57:01.707Z,11.40
2022-12-29T16:59:39.274Z,9.70
2022-12-29T17:02:15.510Z,10.90
2022-12-29T17:04:42.270Z,9.70
2022-12-29T17:07:20.592Z,8.70
2022-12-29T17:09:47.290Z,8.73
2022-12-29T17:12:21.824Z,6.45
2022-12-29T17:14:52.838Z,5.88
2022-12-29T17:17:57.788Z,6.85
2022-12-29T17:20:29.741Z,6.00
2022-12-29T17:22:58.184Z,7.85
2022-12-29T17:25:31.837Z,5.32
2022-12-29T17:28:13.929Z,5.50
2022-12-29T17:30:41.036Z,6.25
2022-12-29T17:33:13.335Z,8.35
2022-12-29T17:35:40.100Z,8.57
2022-12-29T17:38:21.664Z,8.52
2022-12-29T17:40:49.554Z,8.02
2022-12-29T17:43:17.185Z,8.52
2022-12-29T17:45:47.818Z,9.07
2022-12-29T17:48:16.479Z,10.63
2022-12-29T17:50:44.407Z,9.20
2022-12-29T17:53:22.605Z,7.30
2022-12-29T17:55:49.200Z,7.13
2022-12-29T17:58:18.001Z,8.32
2022-12-29T18:00:45.387Z,17.88
2022-12-29T18:03:16.971Z,23.88
2022-12-29T18:05:44.258Z,21.05
2022-12-29T18:08:14.804Z,24.58
2022-12-29T18:10:42.308Z,13.73
2022-12-29T18:13:19.721Z,23.70
2022-12-29T18:15:47.131Z,15.88
2022-12-29T18:18:16.058Z,12.27
2022-12-29T18:20:43.904Z,15.43
2022-12-29T18:23:24.104Z,13.52
2022-12-29T18:25:55.309Z,16.02
2022-12-29T18:28:21.917Z,11.25
2022-12-29T18:30:48.545Z,9.43
2022-12-29T18:33:21.942Z,14.48
2022-12-29T18:35:57.298Z,9.98
2022-12-29T18:40:50.748Z,21.48
2022-12-29T18:43:18.367Z,15.13
2022-12-29T18:45:48.449Z,11.93
2022-12-29T18:48:16.587Z,14.00
2022-12-29T18:50:43.500Z,12.02
2022-12-29T18:53:17.742Z,13.23
2022-12-29T18:55:44.510Z,13.80
2022-12-29T18:58:11.068Z,6.40
2022-12-29T19:00:38.566Z,12.45
2022-12-29T19:03:05.995Z,10.30
2022-12-29T19:05:38.019Z,20.70
2022-12-29T19:08:05.457Z,15.95
2022-12-29T19:10:32.294Z,27.73
2022-12-29T19:12:59.391Z,12.35
2022-12-29T19:15:29.726Z,14.35
2022-12-29T19:18:32.888Z,11.45
2022-12-29T19:20:45.961Z,13.15
2022-12-29T19:23:15.734Z,13.13
2022-12-29T19:25:43.081Z,10.73
2022-12-29T19:28:18.439Z,10.73
2022-12-29T19:30:51.050Z,10.27
2022-12-29T19:33:19.300Z,11.93
2022-12-29T19:35:45.840Z,10.00
2022-12-29T19:38:13.386Z,9.38
2022-12-29T19:40:45.550Z,10.50
2022-12-29T19:43:13.004Z,9.65
2022-12-29T19:45:44.837Z,9.20
2022-12-29T19:48:17.041Z,12.05
2022-12-29T19:50:44.137Z,11.75
2022-12-29T19:53:11.493Z,12.27
2022-12-29T19:55:42.342Z,8.52
2022-12-29T19:58:08.977Z,11.38
2022-12-29T20:00:35.661Z,13.13
2022-12-29T20:03:02.373Z,13.90
2022-12-29T20:05:29.034Z,13.50
2022-12-29T20:07:55.534Z,14.40
2022-12-29T20:10:22.048Z,10.20
2022-12-29T20:12:48.593Z,7.63
2022-12-29T20:15:15.528Z,8.55
2022-12-29T20:20:29.775Z,7.68
2022-12-29T20:22:57.793Z,9.35
2022-12-29T20:28:10.904Z,11.55
2022-12-29T20:30:37.454Z,12.73
2022-12-29T20:33:08.070Z,18.33
2022-12-29T20:35:35.178Z,15.90
2022-12-29T20:38:01.891Z,19.95
2022-12-29T20:40:28.618Z,15.20
2022-12-29T20:42:55.209Z,13.70
2022-12-29T20:45:21.750Z,12.27
2022-12-29T20:47:48.262Z,18.17
2022-12-29T20:50:14.819Z,15.32
2022-12-29T20:52:41.344Z,15.23
2022-12-29T20:55:08.115Z,15.48
2022-12-29T20:57:57.022Z,13.52
2022-12-29T21:00:22.848Z,12.90
2022-12-29T21:02:50.059Z,15.02
2022-12-29T21:05:25.236Z,14.73
2022-12-29T21:07:56.415Z,11.13
2022-12-29T21:10:23.191Z,13.18
2022-12-29T21:12:49.793Z,9.90
2022-12-29T21:15:16.579Z,10.52
2022-12-29T21:17:44.258Z,13.57
2022-12-29T21:20:19.795Z,10.48
2022-12-29T21:22:47.823Z,13.30
2022-12-29T21:25:15.021Z,15.52
2022-12-29T21:27:44.550Z,14.93
2022-12-29T21:30:11.944Z,16.63
2022-12-29T21:32:38.918Z,14.00
2022-12-29T21:35:06.224Z,12.20
2022-12-29T21:37:32.955Z,12.00
2022-12-29T21:39:59.494Z,13.95
2022-12-29T21:42:29.117Z,11.25
2022-12-29T21:45:20.189Z,11.93
2022-12-29T21:48:06.308Z,10.40
2022-12-29T21:50:32.868Z,12.60
2022-12-29T21:52:59.396Z,13.88
2022-12-29T21:55:25.935Z,13.32
2022-12-29T21:58:11.142Z,13.55
2022-12-29T22:00:56.702Z,10.18
2022-12-29T22:03:41.906Z,16.67
2022-12-29T22:06:30.297Z,13.20
2022-12-29T22:09:15.908Z,11.23
2022-12-29T22:12:00.777Z,14.35
2022-12-29T22:14:27.525Z,16.15
2022-12-29T22:16:54.285Z,11.38
2022-12-29T22:19:20.935Z,14.60
2022-12-29T22:21:47.506Z,13.20
2022-12-29T22:24:14.089Z,14.88
2022-12-29T22:26:40.697Z,14.10
2022-12-29T22:29:07.315Z,18.13
2022-12-29T22:31:34.084Z,13.27
2022-12-29T22:34:03.009Z,11.43
2022-12-29T22:36:30.885Z,11.40
2022-12-29T22:38:57.592Z,11.25
2022-12-29T22:41:24.151Z,12.88
2022-12-29T22:43:50.808Z,11.80
2022-12-29T22:46:17.443Z,13.45
2022-12-29T22:48:44.015Z,13.48
2022-12-29T22:51:10.599Z,13.52
2022-12-29T22:53:37.174Z,10.35
2022-12-29T22:56:13.552Z,12.02
2022-12-29T22:58:41.771Z,11.18
2022-12-29T23:01:09.642Z,12.02
2022-12-29T23:03:36.447Z,11.43
2022-12-29T23:06:05.179Z,13.95
2022-12-29T23:08:34.670Z,10.90
2022-12-29T23:11:01.777Z,15.07
2022-12-29T23:13:28.329Z,13.77
2022-12-29T23:15:54.980Z,13.23
2022-12-29T23:18:21.622Z,9.20
2022-12-29T23:20:49.244Z,10.85
2022-12-29T23:23:36.443Z,14.90
2022-12-29T23:26:03.384Z,15.20
2022-12-29T23:28:30.043Z,15.57
2022-12-29T23:30:56.684Z,16.15
2022-12-29T23:33:23.294Z,17.55
2022-12-29T23:35:50.043Z,15.88
2022-12-29T23:38:16.608Z,14.27
2022-12-29T23:40:43.121Z,15.07
2022-12-29T23:43:09.644Z,17.92
2022-12-29T23:45:37.327Z,15.82
2022-12-29T23:48:04.624Z,15.32
2022-12-29T23:50:32.068Z,14.15
2022-12-29T23:52:59.403Z,15.30
2022-12-29T23:55:25.942Z,13.27
2022-12-29T23:57:52.533Z,7.78
